sensor_id;sensor_type;location;lat;lon;timestamp;pressure;altitude;pressure_sealevel;temperature;humidity
10518;BME280;5307;42.548;22.968;2023-08-12T00:01:06;94404.47;;;16.68;88.21
10518;BME280;5307;42.548;22.968;2023-08-12T00:03:33;94406.75;;;16.45;87.97
10518;BME280;5307;42.548;22.968;2023-08-12T00:06:20;94403.72;;;16.43;89.62
10518;BME280;5307;42.548;22.968;2023-08-12T00:16:10;94408.31;;;15.98;94.45
10518;BME280;5307;42.548;22.968;2023-08-12T00:18:37;94405.44;;;16.17;95.20
10518;BME280;5307;42.548;22.968;2023-08-12T00:21:07;94405.56;;;15.98;94.95
10518;BME280;5307;42.548;22.968;2023-08-12T00:23:48;94409.13;;;15.90;95.24
10518;BME280;5307;42.548;22.968;2023-08-12T00:26:15;94412.59;;;15.99;95.52
10518;BME280;5307;42.548;22.968;2023-08-12T00:28:42;94403.00;;;15.95;96.11
10518;BME280;5307;42.548;22.968;2023-08-12T00:31:10;94407.66;;;16.03;95.77
10518;BME280;5307;42.548;22.968;2023-08-12T00:33:37;94399.47;;;15.94;94.86
10518;BME280;5307;42.548;22.968;2023-08-12T00:36:04;94400.41;;;15.91;93.43
10518;BME280;5307;42.548;22.968;2023-08-12T00:38:30;94401.13;;;15.77;95.27
10518;BME280;5307;42.548;22.968;2023-08-12T00:40:57;94395.97;;;15.94;94.58
10518;BME280;5307;42.548;22.968;2023-08-12T00:43:24;94405.22;;;15.82;95.51
10518;BME280;5307;42.548;22.968;2023-08-12T00:45:51;94397.59;;;16.24;92.81
10518;BME280;5307;42.548;22.968;2023-08-12T00:48:20;94400.00;;;15.84;91.74
10518;BME280;5307;42.548;22.968;2023-08-12T00:50:47;94401.63;;;15.57;95.73
10518;BME280;5307;42.548;22.968;2023-08-12T00:53:14;94394.16;;;15.91;94.67
10518;BME280;5307;42.548;22.968;2023-08-12T00:55:42;94398.81;;;15.33;95.68
10518;BME280;5307;42.548;22.968;2023-08-12T00:58:09;94407.06;;;15.33;97.71
10518;BME280;5307;42.548;22.968;2023-08-12T01:00:37;94385.28;;;15.54;95.89
10518;BME280;5307;42.548;22.968;2023-08-12T01:03:04;94390.66;;;15.48;95.49
10518;BME280;5307;42.548;22.968;2023-08-12T01:05:33;94386.81;;;15.64;95.42
10518;BME280;5307;42.548;22.968;2023-08-12T01:08:00;94386.25;;;15.41;95.77
10518;BME280;5307;42.548;22.968;2023-08-12T01:10:31;94388.91;;;15.69;95.91
10518;BME280;5307;42.548;22.968;2023-08-12T01:13:07;94393.00;;;15.31;97.28
10518;BME280;5307;42.548;22.968;2023-08-12T01:15:38;94393.34;;;15.24;98.06
10518;BME280;5307;42.548;22.968;2023-08-12T01:18:07;94389.38;;;15.25;97.65
10518;BME280;5307;42.548;22.968;2023-08-12T01:20:36;94388.91;;;15.27;97.49
10518;BME280;5307;42.548;22.968;2023-08-12T01:23:10;94386.22;;;15.08;99.39
10518;BME280;5307;42.548;22.968;2023-08-12T01:25:37;94382.06;;;15.22;99.53
10518;BME280;5307;42.548;22.968;2023-08-12T01:28:05;94389.44;;;15.07;98.95
10518;BME280;5307;42.548;22.968;2023-08-12T01:30:32;94387.50;;;14.89;100.00
10518;BME280;5307;42.548;22.968;2023-08-12T01:33:06;94387.91;;;15.06;99.63
10518;BME280;5307;42.548;22.968;2023-08-12T01:35:38;94376.78;;;15.00;100.00
10518;BME280;5307;42.548;22.968;2023-08-12T01:38:09;94378.22;;;14.68;100.00
10518;BME280;5307;42.548;22.968;2023-08-12T01:40:38;94386.00;;;14.79;100.00
10518;BME280;5307;42.548;22.968;2023-08-12T01:43:06;94379.16;;;14.56;100.00
10518;BME280;5307;42.548;22.968;2023-08-12T01:45:34;94387.78;;;14.91;100.00
10518;BME280;5307;42.548;22.968;2023-08-12T01:48:01;94383.84;;;14.92;100.00
10518;BME280;5307;42.548;22.968;2023-08-12T01:50:28;94393.16;;;14.76;100.00
10518;BME280;5307;42.548;22.968;2023-08-12T01:52:55;94389.97;;;14.32;100.00
10518;BME280;5307;42.548;22.968;2023-08-12T01:55:23;94390.44;;;14.58;100.00
10518;BME280;5307;42.548;22.968;2023-08-12T01:57:50;94390.13;;;14.74;100.00
10518;BME280;5307;42.548;22.968;2023-08-12T02:00:16;94389.97;;;14.78;100.00
10518;BME280;5307;42.548;22.968;2023-08-12T02:02:43;94385.88;;;14.64;100.00
10518;BME280;5307;42.548;22.968;2023-08-12T02:05:12;94392.06;;;13.91;100.00
10518;BME280;5307;42.548;22.968;2023-08-12T02:07:39;94391.38;;;14.46;100.00
10518;BME280;5307;42.548;22.968;2023-08-12T02:10:06;94385.25;;;14.69;100.00
10518;BME280;5307;42.548;22.968;2023-08-12T02:12:34;94388.44;;;14.40;100.00
10518;BME280;5307;42.548;22.968;2023-08-12T02:15:01;94379.16;;;14.38;100.00
10518;BME280;5307;42.548;22.968;2023-08-12T02:17:28;94378.38;;;14.28;100.00
10518;BME280;5307;42.548;22.968;2023-08-12T02:19:55;94370.75;;;14.60;100.00
10518;BME280;5307;42.548;22.968;2023-08-12T02:22:22;94374.41;;;14.38;100.00
10518;BME280;5307;42.548;22.968;2023-08-12T02:24:50;94370.91;;;14.47;100.00
10518;BME280;5307;42.548;22.968;2023-08-12T02:27:17;94370.75;;;14.69;100.00
10518;BME280;5307;42.548;22.968;2023-08-12T02:29:45;94371.66;;;14.47;99.79
10518;BME280;5307;42.548;22.968;2023-08-12T02:32:11;94375.94;;;14.48;100.00
10518;BME280;5307;42.548;22.968;2023-08-12T02:34:38;94378.84;;;14.45;100.00
10518;BME280;5307;42.548;22.968;2023-08-12T02:37:05;94376.41;;;14.29;100.00
10518;BME280;5307;42.548;22.968;2023-08-12T02:39:32;94384.03;;;14.43;100.00
10518;BME280;5307;42.548;22.968;2023-08-12T02:41:59;94388.00;;;14.42;100.00
10518;BME280;5307;42.548;22.968;2023-08-12T02:44:28;94392.25;;;14.43;99.93
10518;BME280;5307;42.548;22.968;2023-08-12T02:46:56;94375.78;;;14.15;100.00
10518;BME280;5307;42.548;22.968;2023-08-12T02:49:23;94394.88;;;14.28;100.00
10518;BME280;5307;42.548;22.968;2023-08-12T02:51:49;94388.69;;;13.69;100.00
10518;BME280;5307;42.548;22.968;2023-08-12T02:54:16;94396.78;;;13.73;100.00
10518;BME280;5307;42.548;22.968;2023-08-12T02:56:43;94400.06;;;13.49;100.00
10518;BME280;5307;42.548;22.968;2023-08-12T02:59:10;94395.91;;;13.94;100.00
10518;BME280;5307;42.548;22.968;2023-08-12T03:01:37;94397.13;;;14.02;100.00
10518;BME280;5307;42.548;22.968;2023-08-12T03:04:05;94400.78;;;13.90;100.00
10518;BME280;5307;42.548;22.968;2023-08-12T03:06:32;94401.25;;;13.98;100.00
10518;BME280;5307;42.548;22.968;2023-08-12T03:08:59;94394.63;;;13.77;100.00
10518;BME280;5307;42.548;22.968;2023-08-12T03:11:26;94405.69;;;13.46;100.00
10518;BME280;5307;42.548;22.968;2023-08-12T03:13:53;94406.59;;;14.01;100.00
10518;BME280;5307;42.548;22.968;2023-08-12T03:16:19;94405.03;;;13.91;100.00
10518;BME280;5307;42.548;22.968;2023-08-12T03:18:47;94391.63;;;13.84;100.00
10518;BME280;5307;42.548;22.968;2023-08-12T03:21:15;94414.41;;;13.53;100.00
10518;BME280;5307;42.548;22.968;2023-08-12T03:23:42;94410.19;;;13.71;100.00
10518;BME280;5307;42.548;22.968;2023-08-12T03:26:09;94404.31;;;14.00;100.00
10518;BME280;5307;42.548;22.968;2023-08-12T03:28:36;94409.91;;;13.78;100.00
10518;BME280;5307;42.548;22.968;2023-08-12T03:31:03;94405.03;;;13.91;100.00
10518;BME280;5307;42.548;22.968;2023-08-12T03:33:30;94406.91;;;13.94;100.00
10518;BME280;5307;42.548;22.968;2023-08-12T03:35:57;94407.19;;;13.87;100.00
10518;BME280;5307;42.548;22.968;2023-08-12T03:38:25;94407.47;;;13.80;100.00
10518;BME280;5307;42.548;22.968;2023-08-12T03:40:52;94406.59;;;14.01;100.00
10518;BME280;5307;42.548;22.968;2023-08-12T03:43:19;94414.09;;;14.10;100.00
10518;BME280;5307;42.548;22.968;2023-08-12T03:45:46;94415.91;;;14.13;100.00
10518;BME280;5307;42.548;22.968;2023-08-12T03:48:14;94419.88;;;14.03;100.00
10518;BME280;5307;42.548;22.968;2023-08-12T03:50:42;94408.44;;;13.95;100.00
10518;BME280;5307;42.548;22.968;2023-08-12T03:53:10;94413.47;;;13.96;100.00
10518;BME280;5307;42.548;22.968;2023-08-12T03:55:39;94415.91;;;14.04;100.00
10518;BME280;5307;42.548;22.968;2023-08-12T03:58:05;94424.31;;;14.09;100.00
10518;BME280;5307;42.548;22.968;2023-08-12T04:00:32;94418.06;;;14.18;100.00
10518;BME280;5307;42.548;22.968;2023-08-12T04:02:59;94421.44;;;14.22;100.00
10518;BME280;5307;42.548;22.968;2023-08-12T04:05:26;94410.28;;;14.16;100.00
10518;BME280;5307;42.548;22.968;2023-08-12T04:07:53;94420.34;;;14.29;100.00
10518;BME280;5307;42.548;22.968;2023-08-12T04:10:20;94418.97;;;14.24;100.00
10518;BME280;5307;42.548;22.968;2023-08-12T04:12:48;94421.38;;;14.04;100.00
10518;BME280;5307;42.548;22.968;2023-08-12T04:15:15;94427.38;;;14.39;100.00
10518;BME280;5307;42.548;22.968;2023-08-12T04:17:41;94419.44;;;14.32;100.00
10518;BME280;5307;42.548;22.968;2023-08-12T04:20:09;94424.19;;;14.59;100.00
10518;BME280;5307;42.548;22.968;2023-08-12T04:22:36;94425.56;;;14.45;100.00
10518;BME280;5307;42.548;22.968;2023-08-12T04:25:03;94432.00;;;14.51;100.00
10518;BME280;5307;42.548;22.968;2023-08-12T04:27:30;94422.22;;;14.50;100.00
10518;BME280;5307;42.548;22.968;2023-08-12T04:29:58;94415.78;;;14.71;100.00
10518;BME280;5307;42.548;22.968;2023-08-12T04:32:25;94414.84;;;14.83;100.00
10518;BME280;5307;42.548;22.968;2023-08-12T04:34:52;94413.94;;;14.77;99.98
10518;BME280;5307;42.548;22.968;2023-08-12T04:37:18;94419.88;;;14.94;98.62
10518;BME280;5307;42.548;22.968;2023-08-12T04:39:45;94419.72;;;15.07;97.11
10518;BME280;5307;42.548;22.968;2023-08-12T04:42:12;94415.69;;;15.17;96.22
10518;BME280;5307;42.548;22.968;2023-08-12T04:44:39;94415.50;;;15.30;95.51
10518;BME280;5307;42.548;22.968;2023-08-12T04:47:07;94416.34;;;15.03;94.62
10518;BME280;5307;42.548;22.968;2023-08-12T04:49:35;94407.72;;;15.19;95.67
10518;BME280;5307;42.548;22.968;2023-08-12T04:52:02;94420.75;;;15.61;96.01
10518;BME280;5307;42.548;22.968;2023-08-12T04:54:29;94420.22;;;15.38;92.00
10518;BME280;5307;42.548;22.968;2023-08-12T04:56:56;94416.59;;;15.23;92.18
10518;BME280;5307;42.548;22.968;2023-08-12T04:59:23;94413.09;;;15.23;93.13
10518;BME280;5307;42.548;22.968;2023-08-12T05:01:50;94418.66;;;15.47;92.76
10518;BME280;5307;42.548;22.968;2023-08-12T05:04:18;94412.81;;;15.54;90.88
10518;BME280;5307;42.548;22.968;2023-08-12T05:06:46;94416.16;;;15.58;89.66
10518;BME280;5307;42.548;22.968;2023-08-12T05:09:14;94418.41;;;15.35;91.27
10518;BME280;5307;42.548;22.968;2023-08-12T05:11:41;94418.22;;;15.81;90.43
10518;BME280;5307;42.548;22.968;2023-08-12T05:14:08;94416.78;;;15.53;90.24
10518;BME280;5307;42.548;22.968;2023-08-12T05:16:34;94421.22;;;15.59;91.89
10518;BME280;5307;42.548;22.968;2023-08-12T05:19:01;94419.16;;;15.78;91.92
10518;BME280;5307;42.548;22.968;2023-08-12T05:21:29;94416.25;;;15.72;91.04
10518;BME280;5307;42.548;22.968;2023-08-12T05:23:56;94419.84;;;15.55;92.25
10518;BME280;5307;42.548;22.968;2023-08-12T05:26:23;94425.22;;;15.91;91.39
10518;BME280;5307;42.548;22.968;2023-08-12T05:28:50;94415.31;;;16.09;91.25
10518;BME280;5307;42.548;22.968;2023-08-12T05:31:17;94419.75;;;16.30;90.05
10518;BME280;5307;42.548;22.968;2023-08-12T05:33:43;94417.34;;;16.23;89.27
10518;BME280;5307;42.548;22.968;2023-08-12T05:36:10;94425.91;;;16.49;88.66
10518;BME280;5307;42.548;22.968;2023-08-12T05:38:38;94427.69;;;16.76;87.78
10518;BME280;5307;42.548;22.968;2023-08-12T05:41:05;94427.22;;;16.77;86.98
10518;BME280;5307;42.548;22.968;2023-08-12T05:43:40;94430.34;;;16.85;86.48
10518;BME280;5307;42.548;22.968;2023-08-12T05:46:07;94436.50;;;16.41;87.18
10518;BME280;5307;42.548;22.968;2023-08-12T05:48:34;94429.28;;;16.68;86.43
10518;BME280;5307;42.548;22.968;2023-08-12T05:51:01;94426.00;;;17.23;84.17
10518;BME280;5307;42.548;22.968;2023-08-12T05:53:27;94426.09;;;16.99;84.01
10518;BME280;5307;42.548;22.968;2023-08-12T05:55:55;94420.28;;;17.26;82.97
10518;BME280;5307;42.548;22.968;2023-08-12T05:58:22;94420.16;;;18.00;80.78
10518;BME280;5307;42.548;22.968;2023-08-12T06:00:49;94409.66;;;17.84;78.73
10518;BME280;5307;42.548;22.968;2023-08-12T06:03:16;94412.84;;;18.58;71.20
10518;BME280;5307;42.548;22.968;2023-08-12T06:05:45;94409.41;;;18.63;68.79
10518;BME280;5307;42.548;22.968;2023-08-12T06:08:12;94408.03;;;18.73;66.83
10518;BME280;5307;42.548;22.968;2023-08-12T06:10:39;94403.47;;;19.22;64.27
10518;BME280;5307;42.548;22.968;2023-08-12T06:13:07;94400.72;;;19.53;63.33
10518;BME280;5307;42.548;22.968;2023-08-12T06:15:34;94398.69;;;19.54;61.77
10518;BME280;5307;42.548;22.968;2023-08-12T06:18:01;94400.72;;;19.85;61.64
10518;BME280;5307;42.548;22.968;2023-08-12T06:20:28;94397.72;;;19.89;61.54
10518;BME280;5307;42.548;22.968;2023-08-12T06:22:55;94399.41;;;19.80;60.20
10518;BME280;5307;42.548;22.968;2023-08-12T06:25:22;94397.63;;;19.72;61.34
10518;BME280;5307;42.548;22.968;2023-08-12T06:27:49;94396.53;;;20.49;59.13
10518;BME280;5307;42.548;22.968;2023-08-12T06:30:17;94401.38;;;20.65;56.72
10518;BME280;5307;42.548;22.968;2023-08-12T06:32:44;94395.38;;;20.24;56.33
10518;BME280;5307;42.548;22.968;2023-08-12T06:35:11;94401.06;;;20.52;56.18
10518;BME280;5307;42.548;22.968;2023-08-12T06:37:37;94397.41;;;20.89;56.06
10518;BME280;5307;42.548;22.968;2023-08-12T06:40:05;94388.38;;;21.16;56.03
10518;BME280;5307;42.548;22.968;2023-08-12T06:42:32;94397.69;;;21.08;56.70
10518;BME280;5307;42.548;22.968;2023-08-12T06:44:59;94386.66;;;21.58;55.83
10518;BME280;5307;42.548;22.968;2023-08-12T06:47:30;94382.31;;;21.90;55.67
10518;BME280;5307;42.548;22.968;2023-08-12T06:50:05;94376.50;;;21.77;55.05
10518;BME280;5307;42.548;22.968;2023-08-12T06:52:31;94378.53;;;21.82;56.94
10518;BME280;5307;42.548;22.968;2023-08-12T06:54:58;94383.34;;;21.31;55.36
10518;BME280;5307;42.548;22.968;2023-08-12T06:57:25;94376.72;;;22.13;53.32
10518;BME280;5307;42.548;22.968;2023-08-12T06:59:52;94374.94;;;22.10;53.74
10518;BME280;5307;42.548;22.968;2023-08-12T07:02:21;94368.91;;;21.78;54.94
10518;BME280;5307;42.548;22.968;2023-08-12T07:04:49;94375.63;;;22.38;54.96
10518;BME280;5307;42.548;22.968;2023-08-12T07:07:16;94370.44;;;22.65;55.27
10518;BME280;5307;42.548;22.968;2023-08-12T07:09:43;94366.19;;;22.58;54.79
10518;BME280;5307;42.548;22.968;2023-08-12T07:12:09;94373.25;;;22.59;55.45
10518;BME280;5307;42.548;22.968;2023-08-12T07:14:36;94381.38;;;22.51;54.07
10518;BME280;5307;42.548;22.968;2023-08-12T07:17:03;94373.28;;;22.54;53.66
10518;BME280;5307;42.548;22.968;2023-08-12T07:19:30;94377.81;;;23.45;54.60
10518;BME280;5307;42.548;22.968;2023-08-12T07:21:58;94375.94;;;22.76;53.64
10518;BME280;5307;42.548;22.968;2023-08-12T07:24:25;94373.28;;;23.06;53.12
10518;BME280;5307;42.548;22.968;2023-08-12T07:26:51;94363.97;;;22.40;52.06
10518;BME280;5307;42.548;22.968;2023-08-12T07:29:18;94377.53;;;23.13;54.23
10518;BME280;5307;42.548;22.968;2023-08-12T07:31:45;94364.56;;;23.21;54.24
10518;BME280;5307;42.548;22.968;2023-08-12T07:34:12;94358.06;;;22.60;53.45
10518;BME280;5307;42.548;22.968;2023-08-12T07:36:39;94363.63;;;23.43;53.65
10518;BME280;5307;42.548;22.968;2023-08-12T07:39:07;94359.59;;;23.74;53.03
10518;BME280;5307;42.548;22.968;2023-08-12T07:41:34;94361.34;;;23.77;52.76
10518;BME280;5307;42.548;22.968;2023-08-12T07:44:01;94363.03;;;23.55;55.02
10518;BME280;5307;42.548;22.968;2023-08-12T07:46:28;94350.41;;;24.03;49.73
10518;BME280;5307;42.548;22.968;2023-08-12T07:48:55;94353.50;;;24.24;51.87
10518;BME280;5307;42.548;22.968;2023-08-12T07:51:22;94349.72;;;24.46;50.33
10518;BME280;5307;42.548;22.968;2023-08-12T07:53:49;94338.78;;;23.75;50.74
10518;BME280;5307;42.548;22.968;2023-08-12T07:56:19;94350.06;;;24.12;50.85
10518;BME280;5307;42.548;22.968;2023-08-12T07:58:46;94349.28;;;23.93;49.41
10518;BME280;5307;42.548;22.968;2023-08-12T08:01:13;94348.53;;;23.62;50.80
10518;BME280;5307;42.548;22.968;2023-08-12T08:03:55;94347.50;;;24.14;49.68
10518;BME280;5307;42.548;22.968;2023-08-12T08:06:22;94347.16;;;24.23;50.27
10518;BME280;5307;42.548;22.968;2023-08-12T08:08:48;94343.03;;;24.30;50.21
10518;BME280;5307;42.548;22.968;2023-08-12T08:11:16;94349.66;;;24.03;49.71
10518;BME280;5307;42.548;22.968;2023-08-12T08:13:44;94347.03;;;24.35;49.65
10518;BME280;5307;42.548;22.968;2023-08-12T08:16:11;94346.69;;;24.63;50.57
10518;BME280;5307;42.548;22.968;2023-08-12T08:18:38;94339.09;;;25.01;48.62
10518;BME280;5307;42.548;22.968;2023-08-12T08:21:05;94335.44;;;23.82;47.80
10518;BME280;5307;42.548;22.968;2023-08-12T08:23:32;94341.50;;;24.72;47.85
10518;BME280;5307;42.548;22.968;2023-08-12T08:25:59;94348.28;;;25.14;47.74
10518;BME280;5307;42.548;22.968;2023-08-12T08:28:25;94344.09;;;25.40;48.87
10518;BME280;5307;42.548;22.968;2023-08-12T08:30:54;94338.09;;;25.17;48.45
10518;BME280;5307;42.548;22.968;2023-08-12T08:33:21;94337.28;;;25.67;46.86
10518;BME280;5307;42.548;22.968;2023-08-12T08:35:48;94331.00;;;25.48;48.91
10518;BME280;5307;42.548;22.968;2023-08-12T08:38:14;94328.31;;;26.01;48.28
10518;BME280;5307;42.548;22.968;2023-08-12T08:40:41;94325.72;;;26.16;46.21
10518;BME280;5307;42.548;22.968;2023-08-12T08:43:08;94330.78;;;25.91;47.17
10518;BME280;5307;42.548;22.968;2023-08-12T08:45:36;94335.75;;;25.53;46.40
10518;BME280;5307;42.548;22.968;2023-08-12T08:48:07;94332.38;;;25.87;45.18
10518;BME280;5307;42.548;22.968;2023-08-12T08:50:36;94332.38;;;25.87;47.64
10518;BME280;5307;42.548;22.968;2023-08-12T08:53:04;94324.28;;;25.70;44.48
10518;BME280;5307;42.548;22.968;2023-08-12T08:55:32;94315.47;;;25.47;45.70
10518;BME280;5307;42.548;22.968;2023-08-12T08:57:59;94316.88;;;25.86;46.35
10518;BME280;5307;42.548;22.968;2023-08-12T09:00:27;94313.00;;;26.28;45.05
10518;BME280;5307;42.548;22.968;2023-08-12T09:02:54;94312.78;;;25.87;44.83
10518;BME280;5307;42.548;22.968;2023-08-12T09:05:25;94314.84;;;25.99;47.06
10518;BME280;5307;42.548;22.968;2023-08-12T09:07:53;94299.88;;;25.38;44.04
10518;BME280;5307;42.548;22.968;2023-08-12T09:10:21;94308.28;;;25.84;44.88
10518;BME280;5307;42.548;22.968;2023-08-12T09:12:50;94298.59;;;25.39;44.05
10518;BME280;5307;42.548;22.968;2023-08-12T09:15:18;94293.88;;;25.93;42.80
10518;BME280;5307;42.548;22.968;2023-08-12T09:17:45;94307.63;;;25.45;43.34
10518;BME280;5307;42.548;22.968;2023-08-12T09:20:12;94299.47;;;26.06;45.70
10518;BME280;5307;42.548;22.968;2023-08-12T09:22:41;94301.38;;;25.39;42.95
10518;BME280;5307;42.548;22.968;2023-08-12T09:25:09;94303.66;;;25.99;44.22
10518;BME280;5307;42.548;22.968;2023-08-12T09:27:36;94288.53;;;25.63;43.47
10518;BME280;5307;42.548;22.968;2023-08-12T09:30:05;94280.59;;;26.33;45.44
10518;BME280;5307;42.548;22.968;2023-08-12T09:32:32;94287.38;;;26.51;45.48
10518;BME280;5307;42.548;22.968;2023-08-12T09:34:59;94291.53;;;26.71;44.78
10518;BME280;5307;42.548;22.968;2023-08-12T09:37:28;94286.16;;;25.54;43.08
10518;BME280;5307;42.548;22.968;2023-08-12T09:39:57;94285.00;;;26.02;42.98
10518;BME280;5307;42.548;22.968;2023-08-12T09:42:24;94283.19;;;26.18;41.30
10518;BME280;5307;42.548;22.968;2023-08-12T09:44:51;94283.41;;;25.80;42.35
10518;BME280;5307;42.548;22.968;2023-08-12T09:47:18;94274.31;;;25.61;42.70
10518;BME280;5307;42.548;22.968;2023-08-12T09:49:45;94287.06;;;26.15;41.90
10518;BME280;5307;42.548;22.968;2023-08-12T09:52:12;94280.16;;;26.29;41.18
10518;BME280;5307;42.548;22.968;2023-08-12T09:54:39;94269.63;;;26.22;41.57
10518;BME280;5307;42.548;22.968;2023-08-12T09:57:10;94268.00;;;26.74;43.14
10518;BME280;5307;42.548;22.968;2023-08-12T09:59:38;94265.78;;;27.06;41.57
10518;BME280;5307;42.548;22.968;2023-08-12T10:02:11;94270.38;;;26.36;41.85
10518;BME280;5307;42.548;22.968;2023-08-12T10:04:45;94269.31;;;26.73;42.73
10518;BME280;5307;42.548;22.968;2023-08-12T10:07:12;94268.59;;;26.59;41.25
10518;BME280;5307;42.548;22.968;2023-08-12T10:09:39;94263.91;;;26.41;41.66
10518;BME280;5307;42.548;22.968;2023-08-12T10:12:07;94260.56;;;26.42;42.46
10518;BME280;5307;42.548;22.968;2023-08-12T10:14:35;94254.94;;;26.42;41.11
10518;BME280;5307;42.548;22.968;2023-08-12T10:17:03;94254.34;;;25.83;39.72
10518;BME280;5307;42.548;22.968;2023-08-12T10:19:30;94260.25;;;26.19;41.15
10518;BME280;5307;42.548;22.968;2023-08-12T10:21:58;94251.59;;;26.30;39.08
10518;BME280;5307;42.548;22.968;2023-08-12T10:24:27;94246.06;;;25.91;40.53
10518;BME280;5307;42.548;22.968;2023-08-12T10:26:54;94242.44;;;26.30;39.81
10518;BME280;5307;42.548;22.968;2023-08-12T10:29:23;94242.78;;;27.08;43.96
10518;BME280;5307;42.548;22.968;2023-08-12T10:31:51;94240.13;;;25.94;40.70
10518;BME280;5307;42.548;22.968;2023-08-12T10:34:20;94243.72;;;26.55;40.77
10518;BME280;5307;42.548;22.968;2023-08-12T10:36:47;94234.97;;;26.59;39.30
10518;BME280;5307;42.548;22.968;2023-08-12T10:39:14;94227.69;;;26.43;39.80
10518;BME280;5307;42.548;22.968;2023-08-12T10:41:50;94229.63;;;26.48;39.65
10518;BME280;5307;42.548;22.968;2023-08-12T10:44:20;94233.38;;;26.84;39.95
10518;BME280;5307;42.548;22.968;2023-08-12T10:46:53;94227.19;;;27.20;40.30
10518;BME280;5307;42.548;22.968;2023-08-12T10:49:21;94226.06;;;27.44;40.68
10518;BME280;5307;42.548;22.968;2023-08-12T10:51:49;94225.66;;;26.43;39.97
10518;BME280;5307;42.548;22.968;2023-08-12T10:54:18;94219.81;;;26.54;39.06
10518;BME280;5307;42.548;22.968;2023-08-12T10:57:06;94219.25;;;26.90;39.77
10518;BME280;5307;42.548;22.968;2023-08-12T10:59:51;94200.97;;;26.42;40.23
10518;BME280;5307;42.548;22.968;2023-08-12T11:02:25;94216.38;;;26.35;39.36
10518;BME280;5307;42.548;22.968;2023-08-12T11:04:54;94210.19;;;27.18;40.46
10518;BME280;5307;42.548;22.968;2023-08-12T11:07:22;94204.25;;;27.29;41.01
10518;BME280;5307;42.548;22.968;2023-08-12T11:09:54;94210.97;;;27.26;40.77
10518;BME280;5307;42.548;22.968;2023-08-12T11:12:29;94201.41;;;27.01;39.14
10518;BME280;5307;42.548;22.968;2023-08-12T11:14:58;94206.34;;;26.74;38.28
10518;BME280;5307;42.548;22.968;2023-08-12T11:17:32;94197.88;;;26.66;38.87
10518;BME280;5307;42.548;22.968;2023-08-12T11:20:00;94206.59;;;26.28;36.92
10518;BME280;5307;42.548;22.968;2023-08-12T11:22:27;94202.94;;;26.33;37.25
10518;BME280;5307;42.548;22.968;2023-08-12T11:24:54;94198.63;;;26.67;37.36
10518;BME280;5307;42.548;22.968;2023-08-12T11:27:21;94196.28;;;26.91;36.90
10518;BME280;5307;42.548;22.968;2023-08-12T11:29:49;94191.22;;;26.90;37.27
10518;BME280;5307;42.548;22.968;2023-08-12T11:32:16;94184.78;;;27.24;41.29
10518;BME280;5307;42.548;22.968;2023-08-12T11:34:45;94195.63;;;26.85;37.25
10518;BME280;5307;42.548;22.968;2023-08-12T11:37:12;94194.78;;;27.11;40.55
10518;BME280;5307;42.548;22.968;2023-08-12T11:39:39;94180.19;;;26.92;38.17
10518;BME280;5307;42.548;22.968;2023-08-12T11:42:05;94180.75;;;26.90;39.68
10518;BME280;5307;42.548;22.968;2023-08-12T11:44:32;94178.63;;;26.62;38.60
10518;BME280;5307;42.548;22.968;2023-08-12T11:46:59;94175.00;;;26.75;38.26
10518;BME280;5307;42.548;22.968;2023-08-12T11:49:26;94172.72;;;26.19;38.48
10518;BME280;5307;42.548;22.968;2023-08-12T11:51:54;94180.13;;;26.63;38.15
10518;BME280;5307;42.548;22.968;2023-08-12T11:54:24;94177.63;;;26.26;35.01
10518;BME280;5307;42.548;22.968;2023-08-12T11:56:51;94165.13;;;26.27;36.68
10518;BME280;5307;42.548;22.968;2023-08-12T11:59:21;94165.72;;;26.46;36.65
10518;BME280;5307;42.548;22.968;2023-08-12T12:01:49;94174.91;;;26.68;37.83
10518;BME280;5307;42.548;22.968;2023-08-12T12:04:16;94155.97;;;26.40;35.87
10518;BME280;5307;42.548;22.968;2023-08-12T12:06:45;94161.72;;;26.55;35.98
10518;BME280;5307;42.548;22.968;2023-08-12T12:09:14;94166.44;;;26.60;36.05
10518;BME280;5307;42.548;22.968;2023-08-12T12:11:44;94172.47;;;26.85;36.78
10518;BME280;5307;42.548;22.968;2023-08-12T12:14:11;94158.81;;;27.02;38.48
10518;BME280;5307;42.548;22.968;2023-08-12T12:16:39;94152.56;;;26.54;32.54
10518;BME280;5307;42.548;22.968;2023-08-12T12:19:09;94153.19;;;27.02;36.92
10518;BME280;5307;42.548;22.968;2023-08-12T12:21:40;94155.31;;;27.09;35.85
10518;BME280;5307;42.548;22.968;2023-08-12T12:24:07;94151.16;;;27.03;36.54
10518;BME280;5307;42.548;22.968;2023-08-12T12:26:36;94151.16;;;26.61;34.05
10518;BME280;5307;42.548;22.968;2023-08-12T12:29:03;94149.72;;;26.33;34.63
10518;BME280;5307;42.548;22.968;2023-08-12T12:31:32;94138.16;;;26.71;37.07
10518;BME280;5307;42.548;22.968;2023-08-12T12:34:00;94141.00;;;27.00;38.06
10518;BME280;5307;42.548;22.968;2023-08-12T12:36:27;94143.72;;;27.05;37.56
10518;BME280;5307;42.548;22.968;2023-08-12T12:38:54;94141.50;;;26.90;34.94
10518;BME280;5307;42.548;22.968;2023-08-12T12:41:20;94144.38;;;26.77;35.38
10518;BME280;5307;42.548;22.968;2023-08-12T12:43:49;94143.84;;;26.11;33.33
10518;BME280;5307;42.548;22.968;2023-08-12T12:46:15;94134.88;;;26.25;34.82
10518;BME280;5307;42.548;22.968;2023-08-12T12:48:42;94129.56;;;26.35;34.42
10518;BME280;5307;42.548;22.968;2023-08-12T12:51:10;94129.44;;;26.07;34.18
10518;BME280;5307;42.548;22.968;2023-08-12T12:53:37;94126.44;;;26.04;35.33
10518;BME280;5307;42.548;22.968;2023-08-12T12:56:05;94135.66;;;26.13;34.80
10518;BME280;5307;42.548;22.968;2023-08-12T12:58:33;94121.59;;;26.05;36.53
10518;BME280;5307;42.548;22.968;2023-08-12T13:01:01;94123.16;;;26.14;36.69
10518;BME280;5307;42.548;22.968;2023-08-12T13:03:28;94120.00;;;25.96;37.13
10518;BME280;5307;42.548;22.968;2023-08-12T13:05:55;94125.59;;;25.96;36.28
10518;BME280;5307;42.548;22.968;2023-08-12T13:08:23;94125.09;;;26.19;39.62